Time;durP1;ratioP1;P1;durP2;ratioP2;P2;SDS_P1;SDS_P2;PMS_P1;PMS_P2;Temp;Humidity;BMP_temperature;BMP_pressure;BME280_temperature;BME280_humidity;BME280_pressure;Samples;Min_cycle;Max_cycle;Signal;HPM_P1;HPM_P2
2021/12/04 00:00:09;;;;;;;10.32;3.55;;;1.90;99.90;;;0.58;100.00;96316.03;5030178;28;20060;-70
2021/12/04 00:02:37;;;;;;;;;;;1.90;99.90;;;0.53;100.00;96329.81;5028278;28;20048;-71
2021/12/04 00:05:05;;;;;;;4.50;1.98;;;1.90;99.90;;;0.52;100.00;96316.19;5029135;28;20007;-71
2021/12/04 00:07:34;;;;;;;6.38;2.03;;;1.90;99.90;;;0.57;100.00;96300.75;5026889;28;20096;-70
2021/12/04 00:10:03;;;;;;;2.10;1.23;;;1.90;99.90;;;-146.41;100.00;57768.22;5027702;28;20073;-69
2021/12/04 00:12:33;;;;;;;4.43;1.50;;;1.90;99.90;;;0.77;100.00;96272.19;5028165;28;20037;-70
2021/12/04 00:15:01;;;;;;;2.70;1.27;;;1.90;99.90;;;0.71;100.00;96280.00;5030032;28;20128;-69
2021/12/04 00:17:28;;;;;;;7.22;2.10;;;1.90;99.90;;;0.71;100.00;96272.34;5025846;28;20132;-70
2021/12/04 00:19:55;;;;;;;4.63;1.42;;;1.90;99.90;;;0.67;100.00;96270.75;5030266;28;20399;-71
2021/12/04 00:22:22;;;;;;;4.22;1.73;;;1.80;99.90;;;0.71;100.00;96259.56;5029168;28;20478;-70
2021/12/04 00:24:49;;;;;;;3.00;1.40;;;1.80;99.90;;;0.61;100.00;96256.41;5027380;28;20079;-70
2021/12/04 00:27:16;;;;;;;5.53;1.80;;;1.80;99.90;;;0.60;100.00;96239.41;5026427;28;20073;-70
2021/12/04 00:29:43;;;;;;;3.13;1.35;;;1.80;99.90;;;0.60;100.00;96236.88;5028752;28;20574;-69
2021/12/04 00:32:15;;;;;;;4.55;1.55;;;1.80;99.90;;;0.64;100.00;96220.59;5027035;28;20052;-69
2021/12/04 00:34:46;;;;;;;7.00;2.38;;;1.80;99.90;;;0.48;100.00;96222.69;5029545;28;20126;-69
2021/12/04 00:51:00;;;;;;;2.20;1.02;;;1.60;99.90;;;0.45;100.00;96196.38;5012614;28;20427;-70
2021/12/04 00:53:27;;;;;;;4.88;1.50;;;1.50;99.90;;;0.41;100.00;96201.56;5015718;28;20076;-70
2021/12/04 00:55:53;;;;;;;7.93;2.15;;;1.50;99.90;;;0.41;100.00;96191.38;5028231;28;20484;-69
2021/12/04 00:58:20;;;;;;;5.97;1.70;;;1.60;99.90;;;0.36;100.00;96210.22;5020962;28;20435;-69
2021/12/04 01:00:48;;;;;;;2.65;1.00;;;1.50;99.90;;;0.43;100.00;96211.72;5028832;28;20120;-70
2021/12/04 01:03:15;;;;;;;3.17;1.20;;;1.40;99.90;;;0.46;100.00;96203.16;5031143;28;20141;-69
2021/12/04 01:05:42;;;;;;;5.32;1.58;;;1.40;99.90;;;0.33;100.00;96195.81;5036894;28;20184;-69
2021/12/04 01:08:09;;;;;;;3.08;1.00;;;1.40;99.90;;;0.40;100.00;96191.41;5029656;28;20099;-71
2021/12/04 01:10:36;;;;;;;2.17;0.93;;;1.40;99.90;;;0.33;100.00;96187.31;5026086;28;20133;-70
2021/12/04 01:13:10;;;;;;;1.88;0.73;;;1.30;99.90;;;0.32;100.00;96183.94;5012191;28;20142;-70
2021/12/04 01:15:43;;;;;;;3.72;1.25;;;1.30;99.90;;;0.19;100.00;96196.16;5035708;28;20037;-70
2021/12/04 01:18:11;;;;;;;3.50;1.25;;;1.40;99.90;;;0.25;100.00;96190.06;5040725;28;20128;-70
2021/12/04 01:20:39;;;;;;;2.08;0.70;;;1.40;99.90;;;0.25;100.00;96167.09;5028853;28;20077;-70
2021/12/04 01:23:07;;;;;;;1.42;0.70;;;1.40;99.90;;;0.30;100.00;96172.94;5030783;28;20104;-70
2021/12/04 01:25:38;;;;;;;2.42;0.70;;;1.30;99.90;;;0.26;100.00;96176.44;5033182;28;20072;-69
2021/12/04 01:28:05;;;;;;;2.70;0.80;;;1.30;99.90;;;0.22;100.00;96159.50;5037033;28;20070;-71
2021/12/04 01:30:33;;;;;;;1.73;0.70;;;1.40;99.90;;;0.35;100.00;96157.50;5029413;28;20084;-70
2021/12/04 01:33:00;;;;;;;2.00;0.80;;;1.30;99.90;;;0.35;100.00;96155.78;5029743;28;20108;-70
2021/12/04 01:35:28;;;;;;;0.93;0.50;;;1.40;99.90;;;0.32;100.00;96162.66;5029191;28;20050;-69
2021/12/04 01:37:55;;;;;;;0.90;0.60;;;1.40;99.90;;;0.35;100.00;96160.88;5021566;28;20077;-70
2021/12/04 01:40:22;;;;;;;1.73;0.70;;;1.40;99.90;;;0.36;100.00;96164.25;5042627;28;20129;-69
2021/12/04 01:42:49;;;;;;;1.27;0.70;;;1.40;99.90;;;0.39;100.00;96159.09;5024938;28;20104;-70
2021/12/04 01:45:18;;;;;;;1.13;0.50;;;1.40;99.90;;;0.41;100.00;96158.19;5033674;28;20432;-70
2021/12/04 01:47:46;;;;;;;1.73;0.80;;;1.50;99.90;;;0.46;100.00;96159.75;5030308;28;20125;-70
2021/12/04 01:50:13;;;;;;;1.50;0.80;;;1.40;99.90;;;0.45;100.00;96150.44;5030650;28;20136;-70
2021/12/04 01:52:40;;;;;;;1.25;0.70;;;1.40;99.90;;;0.48;100.00;96145.25;5025532;28;20439;-70
2021/12/04 01:55:08;;;;;;;2.60;0.80;;;1.40;99.90;;;0.41;100.00;96149.66;5022944;28;20182;-70
2021/12/04 01:57:35;;;;;;;2.40;0.80;;;1.40;99.90;;;0.43;100.00;96130.03;5020859;28;20086;-70
2021/12/04 02:00:05;;;;;;;1.50;0.50;;;1.40;99.90;;;0.40;100.00;96112.28;5046369;28;20077;-71
2021/12/04 02:02:32;;;;;;;1.63;0.55;;;1.40;99.90;;;0.40;100.00;96109.72;5029363;28;20077;-69
2021/12/04 02:04:59;;;;;;;1.73;0.88;;;1.40;99.90;;;0.38;100.00;96111.47;5031456;28;20064;-70
2021/12/04 02:07:27;;;;;;;1.17;0.65;;;1.40;99.90;;;0.39;100.00;96114.00;5033678;28;20092;-70
2021/12/04 02:09:54;;;;;;;1.23;0.60;;;1.40;99.90;;;0.45;100.00;96097.66;5022423;28;20046;-70
2021/12/04 02:12:20;;;;;;;1.58;0.82;;;1.40;99.90;;;0.45;100.00;96100.22;5042121;28;20048;-70
2021/12/04 02:14:48;;;;;;;2.22;0.90;;;1.40;99.90;;;0.50;100.00;96088.19;5025718;28;20084;-70
2021/12/04 02:17:15;;;;;;;1.58;0.80;;;1.40;99.90;;;0.49;100.00;96094.16;5031940;28;20102;-70
2021/12/04 02:19:47;;;;;;;2.40;1.00;;;1.40;99.90;;;0.50;100.00;96083.09;5045213;28;20084;-70
2021/12/04 02:22:14;;;;;;;2.90;1.20;;;1.50;99.90;;;0.55;100.00;96080.41;5011402;28;20050;-70
2021/12/04 02:24:42;;;;;;;1.70;0.98;;;1.50;99.90;;;0.55;100.00;96083.78;5026668;28;20131;-70
2021/12/04 02:27:12;;;;;;;1.65;1.10;;;1.50;99.90;;;0.55;100.00;96081.25;5027423;28;20136;-70
2021/12/04 02:29:49;;;;;;;1.90;0.80;;;1.50;99.90;;;0.56;100.00;96071.84;5026542;28;20093;-70
2021/12/04 02:32:20;;;;;;;2.60;1.23;;;1.60;99.90;;;0.57;100.00;96065.84;5044862;28;20049;-70
2021/12/04 02:34:47;;;;;;;2.78;1.48;;;1.60;99.90;;;0.46;100.00;96066.16;5025261;28;20042;-70
2021/12/04 02:37:13;;;;;;;2.42;1.00;;;1.60;99.90;;;0.57;100.00;96059.06;5016261;28;20430;-70
2021/12/04 02:39:45;;;;;;;2.50;1.38;;;1.50;99.90;;;0.61;100.00;96063.19;5011237;28;20518;-70
2021/12/04 02:42:22;;;;;;;2.75;1.52;;;1.60;99.90;;;0.65;100.00;96058.84;5028947;28;20077;-70
2021/12/04 02:44:49;;;;;;;3.08;1.50;;;1.60;99.90;;;0.62;100.00;96057.19;5020236;28;20105;-70
2021/12/04 02:47:17;;;;;;;2.58;1.52;;;1.60;99.90;;;0.61;100.00;96057.25;5018287;28;20077;-71
2021/12/04 02:49:44;;;;;;;3.13;1.65;;;1.60;99.90;;;0.68;100.00;96047.69;5033014;28;20084;-70
2021/12/04 02:52:13;;;;;;;2.22;1.40;;;1.60;99.90;;;0.56;100.00;96039.50;5050934;28;20100;-69
2021/12/04 02:54:41;;;;;;;3.05;1.60;;;1.60;99.90;;;0.59;100.00;96030.91;5044484;28;20171;-70
2021/12/04 02:57:12;;;;;;;3.72;1.70;;;1.60;99.90;;;0.65;100.00;96023.09;5044547;28;20045;-70
2021/12/04 02:59:40;;;;;;;2.40;1.40;;;1.70;99.90;;;0.63;100.00;96029.94;5037046;28;20110;-70
2021/12/04 03:02:19;;;;;;;3.55;1.85;;;1.60;99.90;;;0.67;100.00;96012.84;5027452;28;20144;-70
2021/12/04 03:04:58;;;;;;;2.65;1.30;;;1.70;99.90;;;0.72;100.00;96005.88;5028482;28;20129;-70
2021/12/04 03:07:26;;;;;;;3.92;1.88;;;1.70;99.90;;;0.74;100.00;95997.28;5035436;28;20076;-70
2021/12/04 03:09:54;;;;;;;2.45;1.40;;;1.70;99.90;;;0.71;100.00;96002.50;5031585;28;20132;-71
2021/12/04 03:12:23;;;;;;;2.83;1.50;;;1.70;99.90;;;0.70;100.00;95999.97;5027096;28;21030;-70
2021/12/04 03:14:52;;;;;;;2.75;1.40;;;1.70;99.90;;;0.72;100.00;96000.75;5028399;28;20116;-70
2021/12/04 03:17:21;;;;;;;3.38;1.60;;;1.70;99.90;;;0.79;100.00;95994.59;5020034;28;20125;-70
2021/12/04 03:19:51;;;;;;;2.88;1.52;;;1.70;99.90;;;0.79;100.00;95997.97;5029540;28;20072;-70
2021/12/04 03:22:19;;;;;;;3.58;1.73;;;1.70;99.90;;;0.82;100.00;95987.69;5030313;28;20084;-68
2021/12/04 03:24:47;;;;;;;3.15;1.42;;;1.70;99.90;;;0.80;100.00;95984.34;5025642;28;20542;-69
2021/12/04 03:27:16;;;;;;;2.55;1.48;;;1.70;99.90;;;0.85;100.00;95983.38;5010165;28;20405;-68
2021/12/04 03:29:59;;;;;;;3.47;1.85;;;1.70;99.90;;;0.73;100.00;95982.00;5037728;28;20081;-69
2021/12/04 03:41:02;;;;;;;2.75;1.30;;;1.70;99.90;;;0.72;100.00;95954.78;5013140;28;20081;-69
2021/12/04 03:43:24;;;;;;;3.58;1.63;;;1.70;99.90;;;0.83;100.00;95955.31;5031693;28;20044;-69
2021/12/04 03:45:58;;;;;;;1.92;1.05;;;1.80;99.90;;;0.79;100.00;95956.28;5031623;28;20096;-71
2021/12/04 03:51:04;;;;;;;2.30;1.20;;;1.80;99.90;;;0.86;100.00;95950.09;5036806;28;19920;-70
2021/12/04 03:53:31;;;;;;;4.60;1.33;;;1.80;99.90;;;0.95;100.00;95944.72;5018424;28;20049;-69
2021/12/04 03:55:58;;;;;;;2.55;1.30;;;1.80;99.90;;;0.95;100.00;95942.16;5027646;28;20529;-70
2021/12/04 03:58:25;;;;;;;2.90;1.55;;;1.90;99.90;;;1.00;100.00;95942.00;5023259;28;20042;-70
2021/12/04 04:00:53;;;;;;;2.88;1.50;;;1.80;99.90;;;0.89;100.00;95938.94;5018329;28;20502;-69
2021/12/04 04:03:20;;;;;;;3.25;1.23;;;1.90;99.90;;;0.97;100.00;95931.91;5020682;28;20041;-71
2021/12/04 04:05:47;;;;;;;3.25;1.90;;;1.80;99.90;;;0.89;100.00;95936.41;5033278;28;20051;-70
2021/12/04 04:08:16;;;;;;;2.53;1.40;;;1.80;99.90;;;0.95;100.00;95924.28;5031761;28;20544;-70
2021/12/04 04:10:43;;;;;;;5.10;2.10;;;1.80;99.90;;;0.88;100.00;95920.25;5025487;28;20126;-70
2021/12/04 04:13:12;;;;;;;3.95;1.48;;;1.90;99.90;;;0.98;100.00;95921.66;5036285;28;20187;-70
2021/12/04 04:15:40;;;;;;;2.67;1.52;;;1.90;99.90;;;0.94;100.00;95916.69;5032636;28;20046;-70
2021/12/04 04:18:07;;;;;;;2.85;1.45;;;1.90;99.90;;;0.99;100.00;95914.81;5024513;28;20058;-70
2021/12/04 04:20:35;;;;;;;3.33;1.45;;;1.80;99.90;;;1.02;100.00;95909.59;5023588;28;20077;-70
2021/12/04 04:23:03;;;;;;;2.05;1.10;;;1.80;99.90;;;0.96;100.00;95913.19;5047004;28;20128;-70
2021/12/04 04:25:30;;;;;;;2.58;1.33;;;1.80;99.90;;;0.89;100.00;95915.97;5037600;28;20048;-69
2021/12/04 04:27:57;;;;;;;2.00;1.08;;;1.80;99.90;;;0.89;100.00;95911.72;5029182;28;20418;-70
2021/12/04 04:30:24;;;;;;;2.40;1.08;;;1.80;99.90;;;0.92;100.00;95908.22;5019445;28;20140;-70
2021/12/04 04:32:52;;;;;;;1.92;1.02;;;1.80;99.90;;;0.95;100.00;95911.50;5031666;28;20132;-70
2021/12/04 04:35:22;;;;;;;3.80;1.35;;;1.90;99.90;;;0.91;100.00;95909.09;5012408;28;20093;-69
2021/12/04 05:02:25;;;;;;;1.90;1.00;;;1.80;99.90;;;0.90;100.00;95864.00;5013092;28;20502;-69
2021/12/04 05:13:17;;;;;;;3.95;1.15;;;1.90;99.90;;;0.93;100.00;95866.44;5021172;28;20077;-69
2021/12/04 05:15:57;;;;;;;2.13;0.95;;;1.90;99.90;;;1.01;100.00;95864.50;5011611;28;20589;-71
2021/12/04 05:21:06;;;;;;;1.85;1.10;;;2.00;99.90;;;1.09;100.00;95851.47;5033735;28;20052;-70
2021/12/04 05:23:37;;;;;;;1.27;0.85;;;2.00;99.90;;;1.04;100.00;95855.00;5029231;28;20092;-69
2021/12/04 05:26:10;;;;;;;1.75;0.93;;;2.10;99.90;;;1.07;100.00;95848.94;5016197;28;20041;-69
2021/12/04 05:28:37;;;;;;;1.60;0.98;;;2.10;99.90;;;1.06;100.00;95846.47;5028634;28;20128;-69
2021/12/04 05:31:05;;;;;;;2.03;0.85;;;2.10;99.90;;;1.10;100.00;95841.19;5030857;28;20080;-70
2021/12/04 05:33:32;;;;;;;1.60;0.80;;;2.10;99.90;;;1.09;100.00;95833.56;5038062;28;20048;-69
2021/12/04 05:36:00;;;;;;;1.63;0.93;;;2.10;99.90;;;1.11;100.00;95831.81;5033095;28;20080;-69
2021/12/04 05:38:27;;;;;;;1.50;0.75;;;2.10;99.90;;;1.16;100.00;95825.66;5023301;28;20482;-69
2021/12/04 05:40:55;;;;;;;1.80;0.88;;;2.00;99.90;;;1.14;100.00;95826.59;5022351;28;20050;-70
2021/12/04 05:43:23;;;;;;;0.90;0.57;;;2.00;99.90;;;1.11;100.00;95826.69;5029088;28;20168;-70
2021/12/04 05:45:58;;;;;;;1.30;0.60;;;2.00;99.90;;;1.07;100.00;95825.13;5036681;28;20120;-69
2021/12/04 05:48:46;;;;;;;2.13;0.98;;;2.00;99.90;;;1.06;100.00;95820.91;5056531;28;20532;-70
2021/12/04 05:51:31;;;;;;;2.30;1.40;;;2.00;99.90;;;1.00;100.00;95810.03;5044150;28;20135;-70
2021/12/04 05:54:18;;;;;;;1.58;0.68;;;2.00;99.90;;;1.06;100.00;95803.84;5010779;28;20128;-70
2021/12/04 05:56:46;;;;;;;1.23;0.90;;;2.00;99.90;;;1.05;100.00;95825.19;5011064;28;20088;-69
2021/12/04 05:59:13;;;;;;;2.03;1.10;;;2.00;99.90;;;1.00;100.00;95817.69;5021724;28;20077;-70
2021/12/04 06:01:40;;;;;;;1.90;0.98;;;2.00;99.90;;;0.96;100.00;95810.16;5033573;28;20180;-70
2021/12/04 06:04:07;;;;;;;1.95;0.98;;;2.00;99.90;;;1.08;100.00;95814.88;5026506;28;20080;-69
2021/12/04 06:06:35;;;;;;;2.05;1.00;;;2.00;99.90;;;1.08;100.00;95809.75;5022898;28;20165;-70
2021/12/04 06:09:04;;;;;;;2.80;1.42;;;2.00;99.90;;;0.98;100.00;95806.69;5027975;28;20149;-70
2021/12/04 06:11:32;;;;;;;5.47;1.70;;;2.00;99.90;;;1.06;100.00;95803.84;5029822;28;20363;-69
2021/12/04 06:14:00;;;;;;;1.95;1.10;;;2.00;99.90;;;1.08;100.00;95804.66;5019439;28;20524;-69
2021/12/04 06:16:27;;;;;;;2.85;1.42;;;2.00;99.90;;;1.21;100.00;95800.78;5029324;28;20541;-69
2021/12/04 06:18:55;;;;;;;4.10;2.50;;;2.00;99.90;;;1.08;100.00;95803.81;5037659;28;20072;-68
2021/12/04 06:24:08;;;;;;;3.13;1.63;;;2.00;99.90;;;1.02;100.00;95815.06;5028897;28;20077;-68
2021/12/04 06:26:36;;;;;;;4.55;1.90;;;2.10;99.90;;;1.12;100.00;95813.03;5010303;28;20137;-70
2021/12/04 06:29:04;;;;;;;10.93;5.72;;;2.10;99.90;;;1.04;100.00;95816.66;5011832;28;20203;-70
2021/12/04 06:31:32;;;;;;;6.00;2.92;;;2.10;99.90;;;1.07;100.00;95809.78;5022478;28;20137;-70
2021/12/04 06:33:59;;;;;;;5.38;2.85;;;2.10;99.90;;;1.08;100.00;95806.38;5021555;28;20473;-70
2021/12/04 06:36:26;;;;;;;3.70;2.28;;;2.20;99.90;;;1.18;100.00;95802.59;5015357;28;20136;-70
2021/12/04 06:38:54;;;;;;;9.85;5.22;;;2.10;99.90;;;1.15;100.00;95797.59;5027760;28;20156;-69
2021/12/04 06:41:21;;;;;;;7.03;4.00;;;2.20;99.90;;;1.19;100.00;95800.00;5043354;28;20041;-70
2021/12/04 06:43:50;;;;;;;6.95;3.08;;;2.10;99.90;;;1.30;100.00;95796.22;5026722;28;20083;-70
2021/12/04 06:46:20;;;;;;;5.00;1.55;;;2.20;99.90;;;1.18;100.00;95800.03;5023877;28;20126;-70
2021/12/04 06:51:29;;;;;;;4.15;1.65;;;2.20;99.90;;;1.19;100.00;95794.91;5028635;28;20134;-70
2021/12/04 06:56:37;;;;;;;6.20;2.95;;;2.20;99.90;;;1.07;100.00;95797.84;5033669;28;20072;-71
2021/12/04 06:59:10;;;;;;;7.68;3.85;;;2.20;99.90;;;1.19;100.00;95788.97;5024290;28;20128;-71
2021/12/04 07:01:39;;;;;;;12.55;5.80;;;2.20;99.90;;;1.20;100.00;95790.59;5044867;28;20148;-69
2021/12/04 07:04:08;;;;;;;9.10;3.03;;;2.20;99.90;;;1.22;100.00;95779.44;5023917;28;20073;-69
2021/12/04 07:06:35;;;;;;;8.32;2.40;;;2.20;99.90;;;1.26;100.00;95782.75;5031202;28;20418;-69
2021/12/04 07:09:04;;;;;;;3.83;1.40;;;2.20;99.90;;;1.31;100.00;95787.69;5027565;28;20073;-69
2021/12/04 07:11:31;;;;;;;4.43;2.25;;;2.30;99.90;;;1.27;100.00;95788.69;5029308;28;20108;-69
2021/12/04 07:13:58;;;;;;;4.85;2.63;;;2.30;99.90;;;1.33;100.00;95788.47;5032753;28;20473;-70
2021/12/04 07:16:26;;;;;;;4.15;2.38;;;2.30;99.90;;;1.39;100.00;95791.66;5028736;28;20049;-69
2021/12/04 07:18:53;;;;;;;8.82;3.90;;;2.30;99.90;;;1.42;100.00;95788.16;5035353;28;20567;-69
2021/12/04 07:21:21;;;;;;;3.92;2.45;;;2.30;99.90;;;1.48;100.00;95790.47;5032393;28;20077;-69
2021/12/04 07:23:47;;;;;;;9.15;2.67;;;2.30;99.90;;;1.55;100.00;95783.41;5033466;28;20079;-69
2021/12/04 07:26:14;;;;;;;10.07;3.55;;;2.40;99.90;;;1.52;100.00;95786.09;5025925;28;20129;-71
2021/12/04 07:28:41;;;;;;;6.25;3.47;;;2.50;99.90;;;1.61;100.00;95773.81;5026954;28;20125;-69
2021/12/04 07:31:09;;;;;;;5.57;2.80;;;2.50;99.90;;;1.72;100.00;95775.97;5014889;28;20514;-70
2021/12/04 07:33:36;;;;;;;11.30;3.88;;;2.50;99.90;;;1.62;100.00;95780.59;5031788;28;20072;-69
2021/12/04 07:36:04;;;;;;;17.02;7.47;;;2.50;99.90;;;1.57;100.00;95777.34;5029140;28;20077;-70
2021/12/04 07:38:32;;;;;;;13.30;6.72;;;2.50;99.90;;;1.63;100.00;95774.59;5022481;28;20403;-69
2021/12/04 07:41:00;;;;;;;11.40;5.93;;;2.60;99.90;;;1.54;100.00;95776.66;5043538;28;20486;-70
2021/12/04 07:43:28;;;;;;;15.30;7.80;;;2.50;99.90;;;1.55;100.00;95774.06;5041510;28;20180;-70
2021/12/04 07:45:56;;;;;;;14.98;8.10;;;2.60;99.90;;;1.54;100.00;95767.25;5020254;28;20132;-69
2021/12/04 07:48:23;;;;;;;10.27;6.72;;;2.60;99.90;;;1.67;100.00;95760.81;5029522;28;20322;-69
2021/12/04 07:50:51;;;;;;;8.82;5.63;;;2.60;99.90;;;1.69;100.00;95768.44;5031542;28;20065;-70
2021/12/04 07:53:18;;;;;;;12.73;6.68;;;2.70;99.90;;;1.83;100.00;95760.25;5018478;28;20124;-69
2021/12/04 07:55:45;;;;;;;7.63;2.78;;;2.70;99.90;;;1.97;100.00;95765.66;5029640;28;20464;-70
2021/12/04 07:58:13;;;;;;;7.57;2.97;;;2.80;99.90;;;1.95;100.00;95764.06;5029580;28;20077;-69
2021/12/04 08:00:41;;;;;;;9.07;4.65;;;2.90;99.90;;;2.04;100.00;95769.66;5029538;28;20046;-70
2021/12/04 08:03:08;;;;;;;5.03;2.65;;;2.90;99.90;;;2.07;100.00;95755.91;5029965;28;20517;-69
2021/12/04 08:05:42;;;;;;;3.42;1.38;;;2.90;99.90;;;2.13;100.00;95768.50;5039866;28;20045;-69
2021/12/04 08:08:10;;;;;;;4.30;2.10;;;3.00;99.90;;;2.24;100.00;95766.34;5032715;28;20045;-70
2021/12/04 08:10:37;;;;;;;11.38;5.93;;;3.10;99.90;;;2.24;100.00;95761.22;5024545;28;20129;-70
2021/12/04 08:13:04;;;;;;;8.70;3.92;;;3.10;99.90;;;2.22;100.00;95760.44;5024778;28;20085;-70
2021/12/04 08:15:33;;;;;;;11.75;5.68;;;3.10;99.90;;;2.24;100.00;95757.84;5036167;28;20147;-69
2021/12/04 08:18:00;;;;;;;13.93;8.25;;;3.10;99.90;;;2.21;100.00;95756.25;5036025;28;20046;-70
2021/12/04 08:20:27;;;;;;;19.73;9.43;;;3.10;99.90;;;2.17;100.00;95758.97;5022581;28;20120;-70
2021/12/04 08:22:54;;;;;;;14.57;8.73;;;3.20;99.90;;;2.19;100.00;95762.28;5045633;28;20046;-70
2021/12/04 08:25:22;;;;;;;12.90;6.97;;;3.20;99.90;;;2.29;100.00;95759.31;5018172;28;20447;-69
2021/12/04 08:27:50;;;;;;;8.60;4.53;;;3.20;99.90;;;2.39;100.00;95759.78;5031547;28;20049;-69
2021/12/04 08:30:23;;;;;;;12.10;6.22;;;3.30;99.90;;;2.37;100.00;95759.00;5030976;28;20069;-70
2021/12/04 08:32:53;;;;;;;12.30;7.38;;;3.30;99.90;;;2.46;100.00;95760.38;5032322;28;20136;-69
2021/12/04 08:35:23;;;;;;;11.02;6.60;;;3.40;99.90;;;2.53;100.00;95761.78;5029132;28;20120;-70
2021/12/04 08:37:58;;;;;;;11.52;7.43;;;3.40;99.90;;;2.55;100.00;95759.19;5041960;28;20088;-68
2021/12/04 08:40:27;;;;;;;8.98;6.03;;;3.40;99.90;;;2.51;100.00;95755.94;5012135;28;20050;-69
2021/12/04 08:42:55;;;;;;;11.15;6.32;;;3.50;99.90;;;2.52;100.00;95747.34;5022881;28;20045;-70
2021/12/04 08:45:24;;;;;;;21.02;10.75;;;3.60;99.90;;;2.63;100.00;95752.84;5029498;28;20128;-70
2021/12/04 08:47:51;;;;;;;18.25;8.82;;;3.70;99.90;;;2.59;100.00;95750.47;5029253;28;20152;-70
2021/12/04 08:50:25;;;;;;;15.23;8.20;;;3.70;99.90;;;2.61;100.00;95748.69;5016721;28;20069;-70
2021/12/04 08:52:54;;;;;;;29.70;15.13;;;3.80;99.90;;;2.63;100.00;95757.16;5031931;28;20068;-70
2021/12/04 08:55:23;;;;;;;17.42;10.05;;;3.70;99.90;;;2.79;100.00;95744.56;5016045;28;20073;-70
2021/12/04 08:57:51;;;;;;;20.45;11.90;;;3.80;99.90;;;2.73;100.00;95743.88;5040787;28;20132;-70
2021/12/04 09:00:25;;;;;;;16.50;9.55;;;3.90;99.90;;;2.85;100.00;95742.56;5015649;28;20092;-70
2021/12/04 09:02:53;;;;;;;25.35;16.70;;;3.90;99.90;;;2.81;100.00;95743.59;5031941;28;20045;-70
2021/12/04 09:05:23;;;;;;;21.80;13.32;;;4.00;99.90;;;2.86;100.00;95743.41;5016904;28;20050;-69
2021/12/04 09:07:51;;;;;;;24.38;15.07;;;4.10;99.90;;;2.93;100.00;95740.50;5029267;28;20080;-67
2021/12/04 09:10:20;;;;;;;23.70;12.85;;;4.10;99.90;;;3.08;100.00;95744.16;5021243;28;20147;-68
2021/12/04 09:12:49;;;;;;;12.73;8.25;;;4.20;99.90;;;3.12;100.00;95745.72;5033134;28;20078;-69
2021/12/04 09:15:20;;;;;;;11.65;6.50;;;4.30;99.90;;;3.08;100.00;95744.16;5026783;28;20081;-68
2021/12/04 09:17:47;;;;;;;13.63;8.18;;;4.30;99.90;;;3.12;100.00;95743.16;5028346;28;20084;-69
2021/12/04 09:20:16;;;;;;;48.08;24.65;;;4.30;99.90;;;3.12;100.00;95739.72;5013448;28;20053;-69
2021/12/04 09:22:45;;;;;;;23.45;13.05;;;4.40;99.90;;;3.33;100.00;95743.09;5021008;28;20053;-69
2021/12/04 09:25:21;;;;;;;12.95;7.70;;;4.40;99.90;;;3.23;100.00;95737.53;5027594;28;20088;-70
2021/12/04 09:36:28;;;;;;;11.95;7.13;;;4.50;99.90;;;3.35;100.00;95725.91;5026155;28;20509;-69
2021/12/04 10:01:17;;;;;;;18.20;10.00;;;4.90;99.90;;;3.73;100.00;95705.44;5026606;28;20148;-68
2021/12/04 10:15:19;;;;;;;27.10;15.95;;;4.90;99.90;;;3.70;100.00;95696.13;5025111;28;20119;-70
2021/12/04 10:20:36;;;;;;;59.15;27.92;;;4.80;99.90;;;3.73;100.00;95688.28;5020161;28;20060;-69
2021/12/04 10:34:38;;;;;;;55.85;29.73;;;4.90;99.90;;;3.67;100.00;95667.22;5004554;28;20068;-70
2021/12/04 10:37:10;;;;;;;84.57;41.05;;;4.90;99.90;;;3.80;100.00;95668.31;5015179;28;20826;-69
2021/12/04 10:39:37;;;;;;;87.13;42.78;;;5.00;99.90;;;3.67;100.00;95674.91;5024082;28;20166;-69
2021/12/04 10:42:22;;;;;;;33.08;17.65;;;5.00;99.90;;;3.83;100.00;95664.78;5023136;28;20144;-68
2021/12/04 10:44:54;;;;;;;34.78;19.50;;;5.00;99.90;;;3.76;100.00;95665.06;5007245;28;20482;-69
2021/12/04 10:47:25;;;;;;;30.17;18.02;;;5.10;99.90;;;3.76;100.00;95654.81;5013191;28;20136;-70
2021/12/04 10:52:51;;;;;;;26.42;13.07;;;5.20;99.90;;;3.90;100.00;95632.78;5021813;28;20412;-69
2021/12/04 11:27:20;;;;;;;13.30;8.35;;;5.50;99.90;;;4.50;100.00;95560.53;5004377;28;20428;-68
2021/12/04 11:40:35;;;;;;;23.10;12.43;;;5.70;99.90;;;4.61;100.00;95535.13;5014069;28;20613;-69
2021/12/04 11:43:09;;;;;;;19.50;11.00;;;5.80;99.90;;;4.72;100.00;95521.69;5003252;28;20465;-70
2021/12/04 11:46:00;;;;;;;14.07;8.32;;;5.80;99.90;;;4.74;100.00;95517.31;5009819;28;20116;-69
2021/12/04 11:48:32;;;;;;;13.60;7.72;;;5.90;99.90;;;4.90;100.00;95510.44;5019332;28;20183;-70
2021/12/04 11:51:01;;;;;;;11.73;5.97;;;6.00;99.90;;;4.95;100.00;95507.63;5011363;28;20081;-69
2021/12/04 11:53:32;;;;;;;18.02;10.02;;;6.00;99.90;;;4.93;100.00;95512.88;5024647;28;20579;-69
2021/12/04 11:56:00;;;;;;;23.58;13.95;;;6.00;99.90;;;4.81;100.00;95509.22;5010321;28;20120;-69
2021/12/04 11:58:28;;;;;;;12.00;6.32;;;6.00;99.90;;;4.98;100.00;95510.06;5008656;28;20128;-68
2021/12/04 12:01:04;;;;;;;18.90;9.50;;;6.00;99.90;;;4.96;100.00;95504.97;5022978;28;20060;-69
2021/12/04 12:03:36;;;;;;;16.45;8.85;;;6.00;99.90;;;4.98;100.00;95505.72;5023284;28;20208;-69
2021/12/04 12:06:10;;;;;;;16.63;9.50;;;6.00;99.90;;;5.12;100.00;95504.16;5024507;28;20073;-70
2021/12/04 12:08:45;;;;;;;17.48;9.57;;;6.00;99.90;;;5.06;100.00;95497.59;5025164;28;20057;-69
2021/12/04 12:11:19;;;;;;;6.75;4.05;;;6.10;99.90;;;5.21;100.00;95494.19;5026190;28;20452;-70
2021/12/04 12:13:52;;;;;;;5.88;4.03;;;6.20;99.90;;;5.30;100.00;95482.59;5027203;28;20128;-69
2021/12/04 12:16:25;;;;;;;14.63;8.90;;;6.20;99.90;;;5.14;100.00;95484.34;5039556;28;20053;-69
2021/12/04 12:19:00;;;;;;;18.05;11.40;;;6.30;99.90;;;5.05;100.00;95483.09;5017291;28;20518;-68
2021/12/04 12:22:01;;;;;;;12.70;7.00;;;6.30;99.90;;;5.28;100.00;95470.72;5020885;28;20111;-69
2021/12/04 12:38:39;;;;;;;5.18;2.92;;;6.70;99.90;;;5.81;100.00;95459.97;5021996;28;20491;-69
2021/12/04 12:41:12;;;;;;;4.78;3.00;;;6.70;99.90;;;5.94;100.00;95459.28;5016813;28;20085;-69
2021/12/04 12:43:57;;;;;;;2.97;1.70;;;6.70;99.90;;;5.94;100.00;95456.69;5018631;28;20045;-69
2021/12/04 12:46:34;;;;;;;3.92;2.40;;;6.80;99.90;;;6.00;100.00;95464.09;5019300;28;20076;-69
2021/12/04 12:49:05;;;;;;;4.07;2.10;;;6.80;99.90;;;5.99;100.00;95462.44;5024323;28;20118;-68
2021/12/04 12:51:36;;;;;;;5.28;3.67;;;6.90;99.90;;;6.06;100.00;95476.59;5023667;28;20505;-68
2021/12/04 12:54:06;;;;;;;2.88;1.90;;;7.00;99.90;;;6.10;100.00;95466.97;5023408;28;20076;-69
2021/12/04 12:56:37;;;;;;;3.33;1.70;;;7.10;99.90;;;6.04;100.00;95479.28;5026605;28;20128;-68
2021/12/04 12:59:20;;;;;;;2.80;1.20;;;7.00;99.90;;;6.04;100.00;95475.84;5025178;28;20084;-68
2021/12/04 13:13:38;;;;;;;1.52;0.60;;;7.10;99.90;;;6.15;100.00;95473.47;5012093;28;20154;-69
2021/12/04 13:16:19;;;;;;;2.25;0.60;;;7.10;99.90;;;6.30;100.00;95470.94;5023000;28;20448;-69
2021/12/04 13:18:58;;;;;;;4.13;1.13;;;7.10;99.90;;;6.22;100.00;95482.50;5041087;28;20391;-68
2021/12/04 13:21:26;;;;;;;2.85;0.73;;;7.10;99.90;;;6.37;100.00;95491.09;5019479;28;20109;-69
2021/12/04 13:23:56;;;;;;;2.05;0.88;;;7.20;99.90;;;6.38;100.00;95500.47;5012310;28;20123;-68
2021/12/04 13:26:31;;;;;;;1.23;0.60;;;7.30;99.90;;;6.44;100.00;95514.75;5010430;28;20513;-68
2021/12/04 13:29:02;;;;;;;1.48;0.70;;;7.30;99.90;;;6.42;100.00;95509.69;5017603;28;20084;-71
2021/12/04 13:31:30;;;;;;;1.10;0.60;;;7.30;99.90;;;6.52;100.00;95493.66;5025505;28;20370;-68
2021/12/04 13:33:57;;;;;;;0.93;0.70;;;7.40;99.90;;;6.48;100.00;95469.84;5021313;28;20061;-70
2021/12/04 13:36:29;;;;;;;1.13;0.52;;;7.30;99.90;;;6.45;100.00;95395.28;5021507;28;20137;-68
2021/12/04 13:39:00;;;;;;;0.90;0.45;;;7.30;99.90;;;6.43;100.00;95395.38;5009176;28;20372;-69
2021/12/04 13:41:29;;;;;;;2.63;1.02;;;7.30;99.90;;;6.60;100.00;95411.56;5017056;28;20507;-69
2021/12/04 13:43:59;;;;;;;8.27;3.67;;;7.40;99.90;;;6.53;100.00;95423.19;5009575;28;20138;-70
2021/12/04 13:46:26;;;;;;;4.18;1.80;;;7.40;99.90;;;6.59;100.00;95435.66;5009760;28;20525;-69
2021/12/04 13:49:02;;;;;;;3.53;1.20;;;7.40;99.90;;;6.64;100.00;95465.41;5014272;28;20059;-70